sensor_id;sensor_type;location;lat;lon;timestamp;temperature;humidity
37002;DHT22;22913;51.910;8.374;2023-05-29T00:00:14;13.90;99.90
37002;DHT22;22913;51.910;8.374;2023-05-29T00:03:02;13.90;99.90
37002;DHT22;22913;51.910;8.374;2023-05-29T00:05:49;13.80;99.90
37002;DHT22;22913;51.910;8.374;2023-05-29T00:08:35;13.80;99.90
37002;DHT22;22913;51.910;8.374;2023-05-29T00:11:22;13.70;99.90
37002;DHT22;22913;51.910;8.374;2023-05-29T00:14:08;13.70;99.90
37002;DHT22;22913;51.910;8.374;2023-05-29T00:16:57;13.60;99.90
37002;DHT22;22913;51.910;8.374;2023-05-29T00:19:43;13.60;99.90
37002;DHT22;22913;51.910;8.374;2023-05-29T00:22:28;13.50;99.90
37002;DHT22;22913;51.910;8.374;2023-05-29T00:25:15;13.50;99.90
37002;DHT22;22913;51.910;8.374;2023-05-29T00:28:02;13.40;99.90
37002;DHT22;22913;51.910;8.374;2023-05-29T00:30:47;13.40;99.90
37002;DHT22;22913;51.910;8.374;2023-05-29T00:33:33;13.40;99.90
37002;DHT22;22913;51.910;8.374;2023-05-29T00:36:19;13.30;99.90
37002;DHT22;22913;51.910;8.374;2023-05-29T00:39:06;13.20;99.90
37002;DHT22;22913;51.910;8.374;2023-05-29T00:41:51;13.20;99.90
37002;DHT22;22913;51.910;8.374;2023-05-29T00:44:38;13.10;99.90
37002;DHT22;22913;51.910;8.374;2023-05-29T00:47:24;13.10;99.90
37002;DHT22;22913;51.910;8.374;2023-05-29T00:50:11;13.00;99.90
37002;DHT22;22913;51.910;8.374;2023-05-29T00:52:59;13.00;99.90
37002;DHT22;22913;51.910;8.374;2023-05-29T00:55:48;13.00;99.90
37002;DHT22;22913;51.910;8.374;2023-05-29T00:58:34;12.90;99.90
37002;DHT22;22913;51.910;8.374;2023-05-29T01:01:21;12.90;99.90
37002;DHT22;22913;51.910;8.374;2023-05-29T01:04:07;12.80;99.90
37002;DHT22;22913;51.910;8.374;2023-05-29T01:06:53;12.80;99.90
37002;DHT22;22913;51.910;8.374;2023-05-29T01:09:39;12.70;99.90
37002;DHT22;22913;51.910;8.374;2023-05-29T01:12:28;12.60;99.90
37002;DHT22;22913;51.910;8.374;2023-05-29T01:15:18;12.50;99.90
37002;DHT22;22913;51.910;8.374;2023-05-29T01:18:10;12.40;99.90
37002;DHT22;22913;51.910;8.374;2023-05-29T01:21:00;12.30;99.90
37002;DHT22;22913;51.910;8.374;2023-05-29T01:23:57;12.40;99.90
37002;DHT22;22913;51.910;8.374;2023-05-29T01:26:48;12.30;99.90
37002;DHT22;22913;51.910;8.374;2023-05-29T01:29:35;12.30;99.90
37002;DHT22;22913;51.910;8.374;2023-05-29T01:32:21;12.20;99.90
37002;DHT22;22913;51.910;8.374;2023-05-29T01:35:09;12.10;99.90
37002;DHT22;22913;51.910;8.374;2023-05-29T01:37:54;12.10;99.90
37002;DHT22;22913;51.910;8.374;2023-05-29T01:40:40;12.00;99.90
37002;DHT22;22913;51.910;8.374;2023-05-29T01:43:27;12.00;99.90
37002;DHT22;22913;51.910;8.374;2023-05-29T01:46:13;11.90;99.90
37002;DHT22;22913;51.910;8.374;2023-05-29T01:48:59;11.90;99.90
37002;DHT22;22913;51.910;8.374;2023-05-29T01:51:45;12.00;99.90
37002;DHT22;22913;51.910;8.374;2023-05-29T01:54:31;11.80;99.90
37002;DHT22;22913;51.910;8.374;2023-05-29T01:57:17;11.80;99.90
37002;DHT22;22913;51.910;8.374;2023-05-29T02:00:05;11.90;99.90
37002;DHT22;22913;51.910;8.374;2023-05-29T02:02:53;11.90;99.90
37002;DHT22;22913;51.910;8.374;2023-05-29T02:05:38;11.90;99.90
37002;DHT22;22913;51.910;8.374;2023-05-29T02:08:24;11.80;99.90
37002;DHT22;22913;51.910;8.374;2023-05-29T02:11:10;11.80;99.90
37002;DHT22;22913;51.910;8.374;2023-05-29T02:13:55;11.80;99.90
37002;DHT22;22913;51.910;8.374;2023-05-29T02:16:42;11.80;99.90
37002;DHT22;22913;51.910;8.374;2023-05-29T02:19:29;11.80;99.90
37002;DHT22;22913;51.910;8.374;2023-05-29T02:22:15;11.80;99.90
37002;DHT22;22913;51.910;8.374;2023-05-29T02:25:01;11.90;99.90
37002;DHT22;22913;51.910;8.374;2023-05-29T02:27:47;11.80;99.90
37002;DHT22;22913;51.910;8.374;2023-05-29T02:30:33;11.70;99.90
37002;DHT22;22913;51.910;8.374;2023-05-29T02:33:20;11.70;99.90
37002;DHT22;22913;51.910;8.374;2023-05-29T02:36:05;11.60;99.90
37002;DHT22;22913;51.910;8.374;2023-05-29T02:38:54;11.50;99.90
37002;DHT22;22913;51.910;8.374;2023-05-29T02:41:39;11.50;99.90
37002;DHT22;22913;51.910;8.374;2023-05-29T02:44:25;11.60;99.90
37002;DHT22;22913;51.910;8.374;2023-05-29T02:47:11;11.50;99.90
37002;DHT22;22913;51.910;8.374;2023-05-29T02:49:58;11.50;99.90
37002;DHT22;22913;51.910;8.374;2023-05-29T02:52:43;11.50;99.90
37002;DHT22;22913;51.910;8.374;2023-05-29T02:55:29;11.50;99.90
37002;DHT22;22913;51.910;8.374;2023-05-29T02:58:16;11.40;99.90
37002;DHT22;22913;51.910;8.374;2023-05-29T03:01:02;11.40;99.90
37002;DHT22;22913;51.910;8.374;2023-05-29T03:04:09;11.40;99.90
37002;DHT22;22913;51.910;8.374;2023-05-29T03:06:56;11.40;99.90
37002;DHT22;22913;51.910;8.374;2023-05-29T03:09:42;11.40;99.90
37002;DHT22;22913;51.910;8.374;2023-05-29T03:12:28;11.40;99.90
37002;DHT22;22913;51.910;8.374;2023-05-29T03:15:13;11.40;99.90
37002;DHT22;22913;51.910;8.374;2023-05-29T03:17:59;11.30;99.90
37002;DHT22;22913;51.910;8.374;2023-05-29T03:20:45;11.20;99.90
37002;DHT22;22913;51.910;8.374;2023-05-29T03:23:33;11.20;99.90
37002;DHT22;22913;51.910;8.374;2023-05-29T03:26:19;11.20;99.90
37002;DHT22;22913;51.910;8.374;2023-05-29T03:29:05;11.10;99.90
37002;DHT22;22913;51.910;8.374;2023-05-29T03:31:51;11.10;99.90
37002;DHT22;22913;51.910;8.374;2023-05-29T03:34:37;11.10;99.90
37002;DHT22;22913;51.910;8.374;2023-05-29T03:37:24;11.10;99.90
37002;DHT22;22913;51.910;8.374;2023-05-29T03:40:12;11.00;99.90
37002;DHT22;22913;51.910;8.374;2023-05-29T03:42:58;11.00;99.90
37002;DHT22;22913;51.910;8.374;2023-05-29T03:45:43;11.00;99.90
37002;DHT22;22913;51.910;8.374;2023-05-29T03:48:29;11.00;99.90
37002;DHT22;22913;51.910;8.374;2023-05-29T03:51:15;11.00;99.90
37002;DHT22;22913;51.910;8.374;2023-05-29T03:54:01;11.00;99.90
37002;DHT22;22913;51.910;8.374;2023-05-29T03:56:48;11.00;99.90
37002;DHT22;22913;51.910;8.374;2023-05-29T03:59:33;11.00;99.90
37002;DHT22;22913;51.910;8.374;2023-05-29T04:02:19;11.00;99.90
37002;DHT22;22913;51.910;8.374;2023-05-29T04:05:05;11.10;99.90
37002;DHT22;22913;51.910;8.374;2023-05-29T04:07:51;11.10;99.90
37002;DHT22;22913;51.910;8.374;2023-05-29T04:10:37;11.20;99.90
37002;DHT22;22913;51.910;8.374;2023-05-29T04:13:24;11.20;99.90
37002;DHT22;22913;51.910;8.374;2023-05-29T04:16:09;11.10;99.90
37002;DHT22;22913;51.910;8.374;2023-05-29T04:18:55;11.10;99.90
37002;DHT22;22913;51.910;8.374;2023-05-29T04:21:41;11.00;99.90
37002;DHT22;22913;51.910;8.374;2023-05-29T04:24:27;11.10;99.90
37002;DHT22;22913;51.910;8.374;2023-05-29T04:27:12;11.10;99.90
37002;DHT22;22913;51.910;8.374;2023-05-29T04:29:59;11.10;99.90
37002;DHT22;22913;51.910;8.374;2023-05-29T04:32:46;11.10;99.90
37002;DHT22;22913;51.910;8.374;2023-05-29T04:35:32;11.10;99.90
37002;DHT22;22913;51.910;8.374;2023-05-29T04:38:19;11.10;99.90
37002;DHT22;22913;51.910;8.374;2023-05-29T04:41:08;11.10;99.90
37002;DHT22;22913;51.910;8.374;2023-05-29T04:43:55;11.20;99.90
37002;DHT22;22913;51.910;8.374;2023-05-29T04:46:41;11.20;99.90
37002;DHT22;22913;51.910;8.374;2023-05-29T04:49:28;11.30;99.90
37002;DHT22;22913;51.910;8.374;2023-05-29T04:52:14;11.30;99.90
37002;DHT22;22913;51.910;8.374;2023-05-29T04:54:59;11.30;99.90
37002;DHT22;22913;51.910;8.374;2023-05-29T04:57:46;11.30;99.90
37002;DHT22;22913;51.910;8.374;2023-05-29T05:00:32;11.40;99.90
37002;DHT22;22913;51.910;8.374;2023-05-29T05:03:19;11.40;99.90
37002;DHT22;22913;51.910;8.374;2023-05-29T05:06:04;11.40;99.90
37002;DHT22;22913;51.910;8.374;2023-05-29T05:08:51;11.50;99.90
37002;DHT22;22913;51.910;8.374;2023-05-29T05:11:37;11.50;99.90
37002;DHT22;22913;51.910;8.374;2023-05-29T05:14:23;11.50;99.90
37002;DHT22;22913;51.910;8.374;2023-05-29T05:17:08;11.60;99.90
37002;DHT22;22913;51.910;8.374;2023-05-29T05:19:55;11.60;99.90
37002;DHT22;22913;51.910;8.374;2023-05-29T05:22:41;11.70;99.90
37002;DHT22;22913;51.910;8.374;2023-05-29T05:25:27;11.70;99.90
37002;DHT22;22913;51.910;8.374;2023-05-29T05:28:12;11.70;99.90
37002;DHT22;22913;51.910;8.374;2023-05-29T05:30:58;11.80;99.90
37002;DHT22;22913;51.910;8.374;2023-05-29T05:33:43;11.80;99.90
37002;DHT22;22913;51.910;8.374;2023-05-29T05:36:31;11.80;99.90
37002;DHT22;22913;51.910;8.374;2023-05-29T05:39:17;11.80;99.90
37002;DHT22;22913;51.910;8.374;2023-05-29T05:42:03;11.80;99.90
37002;DHT22;22913;51.910;8.374;2023-05-29T05:44:51;11.90;99.90
37002;DHT22;22913;51.910;8.374;2023-05-29T05:47:36;11.90;99.90
37002;DHT22;22913;51.910;8.374;2023-05-29T05:50:22;12.00;99.90
37002;DHT22;22913;51.910;8.374;2023-05-29T05:53:10;12.00;99.90
37002;DHT22;22913;51.910;8.374;2023-05-29T05:55:56;12.10;99.90
37002;DHT22;22913;51.910;8.374;2023-05-29T05:58:42;12.20;99.90
37002;DHT22;22913;51.910;8.374;2023-05-29T06:01:28;12.20;99.90
37002;DHT22;22913;51.910;8.374;2023-05-29T06:04:14;12.20;99.90
37002;DHT22;22913;51.910;8.374;2023-05-29T06:07:00;12.20;99.90
37002;DHT22;22913;51.910;8.374;2023-05-29T06:09:48;12.30;99.90
37002;DHT22;22913;51.910;8.374;2023-05-29T06:12:34;12.30;99.90
37002;DHT22;22913;51.910;8.374;2023-05-29T06:15:20;12.40;99.90
37002;DHT22;22913;51.910;8.374;2023-05-29T06:18:06;12.40;99.90
37002;DHT22;22913;51.910;8.374;2023-05-29T06:20:52;12.40;99.90
37002;DHT22;22913;51.910;8.374;2023-05-29T06:23:38;12.50;99.90
37002;DHT22;22913;51.910;8.374;2023-05-29T06:26:27;12.60;99.90
37002;DHT22;22913;51.910;8.374;2023-05-29T06:29:12;12.80;99.90
37002;DHT22;22913;51.910;8.374;2023-05-29T06:31:59;12.80;99.90
37002;DHT22;22913;51.910;8.374;2023-05-29T06:34:45;12.80;99.90
37002;DHT22;22913;51.910;8.374;2023-05-29T06:37:31;13.00;99.90
37002;DHT22;22913;51.910;8.374;2023-05-29T06:40:17;13.10;99.90
37002;DHT22;22913;51.910;8.374;2023-05-29T06:43:04;13.20;99.90
37002;DHT22;22913;51.910;8.374;2023-05-29T06:45:50;13.20;99.90
37002;DHT22;22913;51.910;8.374;2023-05-29T06:48:36;13.30;99.90
37002;DHT22;22913;51.910;8.374;2023-05-29T06:51:25;13.40;99.90
37002;DHT22;22913;51.910;8.374;2023-05-29T06:54:11;13.40;99.90
37002;DHT22;22913;51.910;8.374;2023-05-29T06:56:58;13.50;99.90
37002;DHT22;22913;51.910;8.374;2023-05-29T06:59:45;13.40;99.90
37002;DHT22;22913;51.910;8.374;2023-05-29T07:02:31;13.40;99.90
37002;DHT22;22913;51.910;8.374;2023-05-29T07:05:17;13.50;99.90
37002;DHT22;22913;51.910;8.374;2023-05-29T07:08:03;13.60;99.90
37002;DHT22;22913;51.910;8.374;2023-05-29T07:10:49;13.60;99.90
37002;DHT22;22913;51.910;8.374;2023-05-29T07:13:34;13.70;99.90
37002;DHT22;22913;51.910;8.374;2023-05-29T07:16:22;13.70;99.90
37002;DHT22;22913;51.910;8.374;2023-05-29T07:19:08;13.70;99.90
37002;DHT22;22913;51.910;8.374;2023-05-29T07:21:55;13.80;99.90
37002;DHT22;22913;51.910;8.374;2023-05-29T07:24:41;13.90;99.90
37002;DHT22;22913;51.910;8.374;2023-05-29T07:27:27;13.90;99.90
37002;DHT22;22913;51.910;8.374;2023-05-29T07:30:13;14.00;99.90
37002;DHT22;22913;51.910;8.374;2023-05-29T07:33:00;14.00;99.90
37002;DHT22;22913;51.910;8.374;2023-05-29T07:35:46;14.10;99.90
37002;DHT22;22913;51.910;8.374;2023-05-29T07:38:31;14.10;99.90
37002;DHT22;22913;51.910;8.374;2023-05-29T07:41:17;14.30;99.90
37002;DHT22;22913;51.910;8.374;2023-05-29T07:44:02;14.40;99.90
37002;DHT22;22913;51.910;8.374;2023-05-29T07:46:48;14.50;99.90
37002;DHT22;22913;51.910;8.374;2023-05-29T07:49:35;14.50;99.90
37002;DHT22;22913;51.910;8.374;2023-05-29T07:52:21;14.60;99.90
37002;DHT22;22913;51.910;8.374;2023-05-29T07:55:07;14.60;99.90
37002;DHT22;22913;51.910;8.374;2023-05-29T07:57:53;14.70;99.90
37002;DHT22;22913;51.910;8.374;2023-05-29T08:00:38;14.80;99.90
37002;DHT22;22913;51.910;8.374;2023-05-29T08:03:24;14.80;99.90
37002;DHT22;22913;51.910;8.374;2023-05-29T08:06:11;14.90;99.90
37002;DHT22;22913;51.910;8.374;2023-05-29T08:08:57;15.00;99.90
37002;DHT22;22913;51.910;8.374;2023-05-29T08:11:43;15.00;99.90
37002;DHT22;22913;51.910;8.374;2023-05-29T08:14:29;15.10;99.90
37002;DHT22;22913;51.910;8.374;2023-05-29T08:17:15;15.10;99.90
37002;DHT22;22913;51.910;8.374;2023-05-29T08:20:00;15.30;99.90
37002;DHT22;22913;51.910;8.374;2023-05-29T08:22:51;15.30;99.90
37002;DHT22;22913;51.910;8.374;2023-05-29T08:25:37;15.40;99.90
37002;DHT22;22913;51.910;8.374;2023-05-29T08:28:22;15.50;99.90
37002;DHT22;22913;51.910;8.374;2023-05-29T08:31:10;15.60;99.90
37002;DHT22;22913;51.910;8.374;2023-05-29T08:33:56;15.70;99.90
37002;DHT22;22913;51.910;8.374;2023-05-29T08:36:41;15.80;99.90
37002;DHT22;22913;51.910;8.374;2023-05-29T08:39:28;15.80;99.90
37002;DHT22;22913;51.910;8.374;2023-05-29T08:42:21;15.90;99.90
37002;DHT22;22913;51.910;8.374;2023-05-29T08:45:12;16.00;99.90
37002;DHT22;22913;51.910;8.374;2023-05-29T08:48:00;16.00;99.90
37002;DHT22;22913;51.910;8.374;2023-05-29T08:50:46;16.20;99.90
37002;DHT22;22913;51.910;8.374;2023-05-29T08:53:32;16.20;99.90
37002;DHT22;22913;51.910;8.374;2023-05-29T08:56:19;16.40;99.90
37002;DHT22;22913;51.910;8.374;2023-05-29T08:59:07;16.60;99.90
37002;DHT22;22913;51.910;8.374;2023-05-29T09:01:53;16.70;99.90
37002;DHT22;22913;51.910;8.374;2023-05-29T09:04:41;16.70;99.90
37002;DHT22;22913;51.910;8.374;2023-05-29T09:07:29;16.80;99.90
37002;DHT22;22913;51.910;8.374;2023-05-29T09:10:15;17.00;99.90
37002;DHT22;22913;51.910;8.374;2023-05-29T09:13:02;17.00;99.90
37002;DHT22;22913;51.910;8.374;2023-05-29T09:15:48;17.10;99.90
37002;DHT22;22913;51.910;8.374;2023-05-29T09:18:34;17.30;99.90
37002;DHT22;22913;51.910;8.374;2023-05-29T09:21:26;17.50;99.90
37002;DHT22;22913;51.910;8.374;2023-05-29T09:24:14;17.60;99.90
37002;DHT22;22913;51.910;8.374;2023-05-29T09:27:00;17.70;99.90
37002;DHT22;22913;51.910;8.374;2023-05-29T09:29:47;17.80;99.90
37002;DHT22;22913;51.910;8.374;2023-05-29T09:32:33;17.80;99.90
37002;DHT22;22913;51.910;8.374;2023-05-29T09:35:19;17.80;99.90
37002;DHT22;22913;51.910;8.374;2023-05-29T09:38:05;17.90;99.90
37002;DHT22;22913;51.910;8.374;2023-05-29T09:40:51;18.00;99.90
37002;DHT22;22913;51.910;8.374;2023-05-29T09:43:39;18.10;99.90
37002;DHT22;22913;51.910;8.374;2023-05-29T09:46:28;18.10;99.90
37002;DHT22;22913;51.910;8.374;2023-05-29T09:49:14;18.10;99.90
37002;DHT22;22913;51.910;8.374;2023-05-29T09:52:00;18.20;99.90
37002;DHT22;22913;51.910;8.374;2023-05-29T09:54:46;18.30;99.90
37002;DHT22;22913;51.910;8.374;2023-05-29T09:57:32;18.40;99.90
37002;DHT22;22913;51.910;8.374;2023-05-29T10:00:19;18.60;99.90
37002;DHT22;22913;51.910;8.374;2023-05-29T10:03:07;18.60;99.90
37002;DHT22;22913;51.910;8.374;2023-05-29T10:05:55;18.80;99.90
37002;DHT22;22913;51.910;8.374;2023-05-29T10:08:46;19.00;99.90
37002;DHT22;22913;51.910;8.374;2023-05-29T10:11:33;19.20;99.90
37002;DHT22;22913;51.910;8.374;2023-05-29T10:14:21;19.30;99.90
37002;DHT22;22913;51.910;8.374;2023-05-29T10:17:08;19.50;99.90
37002;DHT22;22913;51.910;8.374;2023-05-29T10:19:57;19.70;99.90
37002;DHT22;22913;51.910;8.374;2023-05-29T10:22:46;19.90;99.90
37002;DHT22;22913;51.910;8.374;2023-05-29T10:25:33;20.00;99.90
37002;DHT22;22913;51.910;8.374;2023-05-29T10:28:21;20.10;99.90
37002;DHT22;22913;51.910;8.374;2023-05-29T10:31:09;20.20;99.90
37002;DHT22;22913;51.910;8.374;2023-05-29T10:34:07;20.60;99.90
37002;DHT22;22913;51.910;8.374;2023-05-29T10:37:15;20.70;99.90
37002;DHT22;22913;51.910;8.374;2023-05-29T10:40:04;21.00;99.90
37002;DHT22;22913;51.910;8.374;2023-05-29T10:42:51;21.20;99.90
37002;DHT22;22913;51.910;8.374;2023-05-29T10:45:47;21.50;99.90
37002;DHT22;22913;51.910;8.374;2023-05-29T10:48:37;21.60;99.90
37002;DHT22;22913;51.910;8.374;2023-05-29T10:51:26;21.70;99.90
37002;DHT22;22913;51.910;8.374;2023-05-29T10:54:14;21.90;99.90
37002;DHT22;22913;51.910;8.374;2023-05-29T10:57:00;22.00;99.90
37002;DHT22;22913;51.910;8.374;2023-05-29T10:59:46;22.30;99.90
37002;DHT22;22913;51.910;8.374;2023-05-29T11:02:32;22.60;99.90
37002;DHT22;22913;51.910;8.374;2023-05-29T11:05:21;22.70;99.90
37002;DHT22;22913;51.910;8.374;2023-05-29T11:08:12;22.80;99.90
37002;DHT22;22913;51.910;8.374;2023-05-29T11:10:59;23.10;99.90
37002;DHT22;22913;51.910;8.374;2023-05-29T11:13:52;23.20;99.90
37002;DHT22;22913;51.910;8.374;2023-05-29T11:16:37;23.40;99.90
37002;DHT22;22913;51.910;8.374;2023-05-29T11:19:24;23.40;99.90
37002;DHT22;22913;51.910;8.374;2023-05-29T11:22:15;23.40;99.90
37002;DHT22;22913;51.910;8.374;2023-05-29T11:25:04;23.80;99.90
37002;DHT22;22913;51.910;8.374;2023-05-29T11:27:52;24.00;99.90
37002;DHT22;22913;51.910;8.374;2023-05-29T11:30:41;24.30;99.90
37002;DHT22;22913;51.910;8.374;2023-05-29T11:33:27;24.50;99.90
37002;DHT22;22913;51.910;8.374;2023-05-29T11:36:12;24.60;99.90
37002;DHT22;22913;51.910;8.374;2023-05-29T11:39:00;25.00;99.90
37002;DHT22;22913;51.910;8.374;2023-05-29T11:41:49;25.00;99.90
37002;DHT22;22913;51.910;8.374;2023-05-29T11:44:36;25.10;99.90
37002;DHT22;22913;51.910;8.374;2023-05-29T11:47:22;25.30;99.90
37002;DHT22;22913;51.910;8.374;2023-05-29T11:50:17;25.60;99.90
37002;DHT22;22913;51.910;8.374;2023-05-29T11:53:03;25.80;99.90
37002;DHT22;22913;51.910;8.374;2023-05-29T11:55:50;25.90;99.90
37002;DHT22;22913;51.910;8.374;2023-05-29T11:58:36;26.00;99.90
37002;DHT22;22913;51.910;8.374;2023-05-29T12:01:23;26.20;99.90
37002;DHT22;22913;51.910;8.374;2023-05-29T12:04:15;26.30;99.90
37002;DHT22;22913;51.910;8.374;2023-05-29T12:07:00;26.30;99.90
37002;DHT22;22913;51.910;8.374;2023-05-29T12:09:46;26.50;99.90
37002;DHT22;22913;51.910;8.374;2023-05-29T12:12:33;26.80;99.90
37002;DHT22;22913;51.910;8.374;2023-05-29T12:15:19;27.00;99.90
37002;DHT22;22913;51.910;8.374;2023-05-29T12:18:07;27.20;99.90
37002;DHT22;22913;51.910;8.374;2023-05-29T12:20:56;27.60;99.90
37002;DHT22;22913;51.910;8.374;2023-05-29T12:23:42;27.50;99.90
37002;DHT22;22913;51.910;8.374;2023-05-29T12:26:27;27.50;99.90
37002;DHT22;22913;51.910;8.374;2023-05-29T12:29:15;27.70;99.90
37002;DHT22;22913;51.910;8.374;2023-05-29T12:32:01;27.80;99.40
37002;DHT22;22913;51.910;8.374;2023-05-29T12:34:49;27.60;99.90
37002;DHT22;22913;51.910;8.374;2023-05-29T12:37:35;27.90;99.90
37002;DHT22;22913;51.910;8.374;2023-05-29T12:40:22;28.30;99.90
37002;DHT22;22913;51.910;8.374;2023-05-29T12:43:07;28.70;98.70
37002;DHT22;22913;51.910;8.374;2023-05-29T12:45:54;28.90;97.10
37002;DHT22;22913;51.910;8.374;2023-05-29T12:48:40;29.00;96.30
37002;DHT22;22913;51.910;8.374;2023-05-29T12:51:28;29.00;96.30
37002;DHT22;22913;51.910;8.374;2023-05-29T12:54:14;29.40;95.90
37002;DHT22;22913;51.910;8.374;2023-05-29T12:57:00;29.90;94.60
37002;DHT22;22913;51.910;8.374;2023-05-29T12:59:46;30.10;93.30
37002;DHT22;22913;51.910;8.374;2023-05-29T13:02:32;30.40;92.60
37002;DHT22;22913;51.910;8.374;2023-05-29T13:05:18;30.80;91.30
37002;DHT22;22913;51.910;8.374;2023-05-29T13:08:08;31.30;90.80
37002;DHT22;22913;51.910;8.374;2023-05-29T13:10:54;31.60;89.60
37002;DHT22;22913;51.910;8.374;2023-05-29T13:13:40;31.40;88.60
37002;DHT22;22913;51.910;8.374;2023-05-29T13:16:25;30.90;87.90
37002;DHT22;22913;51.910;8.374;2023-05-29T13:19:11;30.90;88.50
37002;DHT22;22913;51.910;8.374;2023-05-29T13:21:57;30.60;87.10
37002;DHT22;22913;51.910;8.374;2023-05-29T13:24:45;31.30;86.40
37002;DHT22;22913;51.910;8.374;2023-05-29T13:27:31;31.50;85.10
37002;DHT22;22913;51.910;8.374;2023-05-29T13:30:17;31.90;82.30
37002;DHT22;22913;51.910;8.374;2023-05-29T13:33:03;31.80;80.20
37002;DHT22;22913;51.910;8.374;2023-05-29T13:35:49;31.90;78.80
37002;DHT22;22913;51.910;8.374;2023-05-29T13:38:34;32.00;77.60
37002;DHT22;22913;51.910;8.374;2023-05-29T13:41:22;31.70;75.60
37002;DHT22;22913;51.910;8.374;2023-05-29T13:44:07;32.00;76.20
37002;DHT22;22913;51.910;8.374;2023-05-29T13:46:53;31.90;76.20
37002;DHT22;22913;51.910;8.374;2023-05-29T13:49:39;31.80;75.20
37002;DHT22;22913;51.910;8.374;2023-05-29T13:52:25;31.70;74.40
37002;DHT22;22913;51.910;8.374;2023-05-29T13:55:11;31.60;72.70
37002;DHT22;22913;51.910;8.374;2023-05-29T13:57:58;31.80;72.80
37002;DHT22;22913;51.910;8.374;2023-05-29T14:00:43;32.00;70.70
37002;DHT22;22913;51.910;8.374;2023-05-29T14:03:29;32.00;71.00
37002;DHT22;22913;51.910;8.374;2023-05-29T14:06:15;31.90;68.30
37002;DHT22;22913;51.910;8.374;2023-05-29T14:09:01;32.00;67.00
37002;DHT22;22913;51.910;8.374;2023-05-29T14:11:47;32.20;67.70
37002;DHT22;22913;51.910;8.374;2023-05-29T14:14:34;32.30;67.50
37002;DHT22;22913;51.910;8.374;2023-05-29T14:17:19;32.20;65.50
37002;DHT22;22913;51.910;8.374;2023-05-29T14:20:06;32.10;65.50
37002;DHT22;22913;51.910;8.374;2023-05-29T14:22:52;31.90;64.80
37002;DHT22;22913;51.910;8.374;2023-05-29T14:25:39;31.90;65.10
37002;DHT22;22913;51.910;8.374;2023-05-29T14:28:25;32.00;64.80
37002;DHT22;22913;51.910;8.374;2023-05-29T14:31:12;32.00;63.60
37002;DHT22;22913;51.910;8.374;2023-05-29T14:33:58;32.00;63.90
37002;DHT22;22913;51.910;8.374;2023-05-29T14:36:43;32.20;63.00
37002;DHT22;22913;51.910;8.374;2023-05-29T14:39:29;32.00;62.80
37002;DHT22;22913;51.910;8.374;2023-05-29T14:42:15;32.20;61.80
37002;DHT22;22913;51.910;8.374;2023-05-29T14:45:01;32.30;61.60
37002;DHT22;22913;51.910;8.374;2023-05-29T14:47:49;31.80;59.20
37002;DHT22;22913;51.910;8.374;2023-05-29T14:50:35;31.80;58.50
37002;DHT22;22913;51.910;8.374;2023-05-29T14:53:21;31.70;56.90
37002;DHT22;22913;51.910;8.374;2023-05-29T14:56:06;31.70;58.10
37002;DHT22;22913;51.910;8.374;2023-05-29T14:58:52;31.80;57.10
37002;DHT22;22913;51.910;8.374;2023-05-29T15:01:38;31.50;56.30
37002;DHT22;22913;51.910;8.374;2023-05-29T15:04:25;31.60;55.30
37002;DHT22;22913;51.910;8.374;2023-05-29T15:07:11;31.70;55.40
37002;DHT22;22913;51.910;8.374;2023-05-29T15:09:56;31.70;55.50
37002;DHT22;22913;51.910;8.374;2023-05-29T15:12:42;31.90;54.60
37002;DHT22;22913;51.910;8.374;2023-05-29T15:15:28;31.80;55.10
37002;DHT22;22913;51.910;8.374;2023-05-29T15:18:14;31.30;55.20
37002;DHT22;22913;51.910;8.374;2023-05-29T15:21:01;31.40;53.80
37002;DHT22;22913;51.910;8.374;2023-05-29T15:23:47;31.40;53.60
37002;DHT22;22913;51.910;8.374;2023-05-29T15:26:33;31.00;54.20
37002;DHT22;22913;51.910;8.374;2023-05-29T15:29:21;31.10;53.40
37002;DHT22;22913;51.910;8.374;2023-05-29T15:32:07;30.90;52.90
37002;DHT22;22913;51.910;8.374;2023-05-29T15:34:53;30.50;52.60
37002;DHT22;22913;51.910;8.374;2023-05-29T15:37:41;30.30;52.40
37002;DHT22;22913;51.910;8.374;2023-05-29T15:40:27;30.40;52.00
37002;DHT22;22913;51.910;8.374;2023-05-29T15:43:13;30.20;51.90
37002;DHT22;22913;51.910;8.374;2023-05-29T15:45:58;30.00;51.60
37002;DHT22;22913;51.910;8.374;2023-05-29T15:48:44;29.90;51.80
37002;DHT22;22913;51.910;8.374;2023-05-29T15:51:30;29.60;51.10
37002;DHT22;22913;51.910;8.374;2023-05-29T15:54:18;29.60;52.30
37002;DHT22;22913;51.910;8.374;2023-05-29T15:57:04;29.40;53.50
37002;DHT22;22913;51.910;8.374;2023-05-29T15:59:50;29.40;53.60
37002;DHT22;22913;51.910;8.374;2023-05-29T16:02:37;29.00;54.80
37002;DHT22;22913;51.910;8.374;2023-05-29T16:05:23;28.70;54.80
37002;DHT22;22913;51.910;8.374;2023-05-29T16:08:09;28.50;55.10
37002;DHT22;22913;51.910;8.374;2023-05-29T16:10:56;28.60;54.30
37002;DHT22;22913;51.910;8.374;2023-05-29T16:13:42;28.50;54.10
37002;DHT22;22913;51.910;8.374;2023-05-29T16:16:29;28.30;55.00
37002;DHT22;22913;51.910;8.374;2023-05-29T16:19:16;28.00;55.60
37002;DHT22;22913;51.910;8.374;2023-05-29T16:22:04;27.90;54.70
37002;DHT22;22913;51.910;8.374;2023-05-29T16:24:50;27.80;55.20
37002;DHT22;22913;51.910;8.374;2023-05-29T16:27:37;27.70;54.80
37002;DHT22;22913;51.910;8.374;2023-05-29T16:30:22;27.50;55.80
37002;DHT22;22913;51.910;8.374;2023-05-29T16:33:08;27.20;55.60
37002;DHT22;22913;51.910;8.374;2023-05-29T16:35:54;26.80;56.80
37002;DHT22;22913;51.910;8.374;2023-05-29T16:38:40;26.50;57.20
37002;DHT22;22913;51.910;8.374;2023-05-29T16:41:26;26.60;58.20
37002;DHT22;22913;51.910;8.374;2023-05-29T16:44:13;26.50;58.80
37002;DHT22;22913;51.910;8.374;2023-05-29T16:46:59;26.20;59.00
37002;DHT22;22913;51.910;8.374;2023-05-29T16:49:45;26.10;59.30
37002;DHT22;22913;51.910;8.374;2023-05-29T16:52:31;25.90;58.90
37002;DHT22;22913;51.910;8.374;2023-05-29T16:55:17;25.80;60.30
37002;DHT22;22913;51.910;8.374;2023-05-29T16:58:03;25.60;60.10
37002;DHT22;22913;51.910;8.374;2023-05-29T17:00:50;25.50;59.70
37002;DHT22;22913;51.910;8.374;2023-05-29T17:03:35;25.40;60.10
37002;DHT22;22913;51.910;8.374;2023-05-29T17:06:21;25.40;59.70
37002;DHT22;22913;51.910;8.374;2023-05-29T17:09:07;25.30;59.60
37002;DHT22;22913;51.910;8.374;2023-05-29T17:11:53;25.40;59.70
37002;DHT22;22913;51.910;8.374;2023-05-29T17:14:39;25.40;60.70
37002;DHT22;22913;51.910;8.374;2023-05-29T17:17:26;25.30;61.20
37002;DHT22;22913;51.910;8.374;2023-05-29T17:20:11;25.20;60.00
37002;DHT22;22913;51.910;8.374;2023-05-29T17:22:59;25.00;59.60
37002;DHT22;22913;51.910;8.374;2023-05-29T17:25:44;24.90;60.30
37002;DHT22;22913;51.910;8.374;2023-05-29T17:28:30;24.80;59.90
37002;DHT22;22913;51.910;8.374;2023-05-29T17:31:16;24.70;60.20